Gerber, California
Current Conditions -  °F | °C
As of 12:54 AM on Saturday 01 Nov 2014 (Local Time) from KRBL Reporting Station
Clear Clear  
Wind Chill: 11°   Ceiling: Unl
Heat Index: 11°   Visibility: 10mi
Dew Point: 10°   Wind: 7mph
Humidity: 93%   Direction: 300°WNW
Pressure: 29.69"   Gusts: NA
Location:  40.06°N, 122.15°W
Report Text: KRBL 010754Z AUTO 30006KT 10SM CLR 11/10 A2969 RMK AO2 SLP054 T01110100 401780111
Loading
Personal Weather Stations






























Interactive Weather Map
Tropical Storm Tracking
New forecast layout! Learn more

10-Day Weather Forecast

Advertisements
Track Severe Weather on mobile